Check out our new PWSWeather beta!
PWSweather.com
Personal Weather Stations
Station Observations
KOMOKA
Komoka Village, Komoka, ON N0L IRO

Komoka VillageKomoka, ON N0L IRO

Lat: 42.9542444, Lon: -81.4348861

Elevation: 805

Station Type: Davis Vantage Pro 2

www.komokaweather.com

High Low Average
Temperature 32.7°F0.4°C 27.7°F-2.4°C 30.7°F-0.7°C
Dew Point 25.3°F-3.7°C 11.7°F-11.3°C 20.1°F-6.6°C
Winds 15.0 mph 24.1 kmh Calm Calm 7.0 mph NE11.3 kmh NE
Wind Gusts 32.0 mph51.5 kmh 1.0 mph1.6 kmh 16.0 mph25.7 kmh
Humidity 74% 46% 65%
Pressure 29.77 in1008.1 mb 29.34 in993.6 mb -
Precipitation 0.02 in0.5 mm - -
Hour Temp Dew Point Humidity Winds Wind Gusts Pressure Precip Precip Rate Daily Precip Total
12:00 AM 29.5°F-1.4°C 16.5°F-8.6°C 58% 9.0 mph N14.5 kmh N 24.0 mph38.6 kmh 29.77 in1008.1 mb 0.00 in0.0 mm 0.00 in0.0 mm 0.00 in0.0 mm
12:07 AM 29.7°F-1.3°C 15.8°F-9.0°C 56% 11.0 mph N17.7 kmh N 23.0 mph37.0 kmh 29.76 in1007.8 mb 0.00 in0.0 mm 0.00 in0.0 mm 0.00 in0.0 mm
12:14 AM 29.7°F-1.3°C 15.1°F-9.4°C 54% 12.0 mph NE19.3 kmh NE 28.0 mph45.1 kmh 29.75 in1007.5 mb 0.00 in0.0 mm 0.00 in0.0 mm 0.00 in0.0 mm
12:21 AM 29.8°F-1.2°C 14.4°F-9.8°C 52% 13.0 mph ENE20.9 kmh ENE 28.0 mph45.1 kmh 29.74 in1007.1 mb 0.00 in0.0 mm 0.00 in0.0 mm 0.00 in0.0 mm
12:28 AM 29.8°F-1.2°C 13.5°F-10.3°C 50% 12.0 mph ENE19.3 kmh ENE 27.0 mph43.5 kmh 29.74 in1007.1 mb 0.00 in0.0 mm 0.00 in0.0 mm 0.00 in0.0 mm
12:35 AM 29.8°F-1.2°C 13.1°F-10.5°C 49% 11.0 mph NE17.7 kmh NE 23.0 mph37.0 kmh 29.73 in1006.8 mb 0.00 in0.0 mm 0.00 in0.0 mm 0.00 in0.0 mm
12:49 AM 29.8°F-1.2°C 12.6°F-10.8°C 48% 11.0 mph NE17.7 kmh NE 27.0 mph43.5 kmh 29.72 in1006.4 mb 0.00 in0.0 mm 0.00 in0.0 mm 0.00 in0.0 mm
12:56 AM 29.8°F-1.2°C 12.6°F-10.8°C 48% 13.0 mph NE20.9 kmh NE 27.0 mph43.5 kmh 29.72 in1006.4 mb 0.00 in0.0 mm 0.00 in0.0 mm 0.00 in0.0 mm
01:03 AM 29.8°F-1.2°C 12.0°F-11.1°C 47% 12.0 mph NE19.3 kmh NE 28.0 mph45.1 kmh 29.72 in1006.4 mb 0.00 in0.0 mm 0.00 in0.0 mm 0.00 in0.0 mm
01:10 AM 30.0°F-1.1°C 12.2°F-11.0°C 47% 12.0 mph NE19.3 kmh NE 28.0 mph45.1 kmh 29.72 in1006.4 mb 0.00 in0.0 mm 0.00 in0.0 mm 0.00 in0.0 mm
01:17 AM 30.0°F-1.1°C 12.2°F-11.0°C 47% 11.0 mph NNE17.7 kmh NNE 24.0 mph38.6 kmh 29.72 in1006.4 mb 0.00 in0.0 mm 0.00 in0.0 mm 0.00 in0.0 mm
01:24 AM 29.8°F-1.2°C 12.0°F-11.1°C 47% 9.0 mph NNE14.5 kmh NNE 25.0 mph40.2 kmh 29.72 in1006.4 mb 0.00 in0.0 mm 0.00 in0.0 mm 0.00 in0.0 mm
01:31 AM 30.0°F-1.1°C 11.7°F-11.3°C 46% 11.0 mph NE17.7 kmh NE 20.0 mph32.2 kmh 29.72 in1006.4 mb 0.00 in0.0 mm 0.00 in0.0 mm 0.00 in0.0 mm
01:38 AM 30.0°F-1.1°C 12.2°F-11.0°C 47% 11.0 mph NE17.7 kmh NE 24.0 mph38.6 kmh 29.72 in1006.4 mb 0.00 in0.0 mm 0.00 in0.0 mm 0.00 in0.0 mm
01:52 AM 29.8°F-1.2°C 12.0°F-11.1°C 47% 9.0 mph NE14.5 kmh NE 25.0 mph40.2 kmh 29.71 in1006.1 mb 0.00 in0.0 mm 0.00 in0.0 mm 0.00 in0.0 mm
01:59 AM 29.8°F-1.2°C 12.0°F-11.1°C 47% 9.0 mph NNE14.5 kmh NNE 16.0 mph25.7 kmh 29.71 in1006.1 mb 0.00 in0.0 mm 0.00 in0.0 mm 0.00 in0.0 mm
02:06 AM 29.8°F-1.2°C 12.0°F-11.1°C 47% 9.0 mph NE14.5 kmh NE 24.0 mph38.6 kmh 29.70 in1005.8 mb 0.00 in0.0 mm 0.00 in0.0 mm 0.00 in0.0 mm
02:20 AM 29.8°F-1.2°C 12.6°F-10.8°C 48% 8.0 mph NE12.9 kmh NE 17.0 mph27.4 kmh 29.69 in1005.4 mb 0.00 in0.0 mm 0.00 in0.0 mm 0.00 in0.0 mm
02:27 AM 29.7°F-1.3°C 12.4°F-10.9°C 48% 8.0 mph NE12.9 kmh NE 23.0 mph37.0 kmh 29.67 in1004.7 mb 0.00 in0.0 mm 0.00 in0.0 mm 0.00 in0.0 mm
02:34 AM 29.7°F-1.3°C 11.8°F-11.2°C 47% 11.0 mph NE17.7 kmh NE 24.0 mph38.6 kmh 29.66 in1004.4 mb 0.00 in0.0 mm 0.00 in0.0 mm 0.00 in0.0 mm
02:41 AM 29.7°F-1.3°C 11.8°F-11.2°C 47% 13.0 mph NE20.9 kmh NE 29.0 mph46.7 kmh 29.66 in1004.4 mb 0.00 in0.0 mm 0.00 in0.0 mm 0.00 in0.0 mm
02:55 AM 29.5°F-1.4°C 11.7°F-11.3°C 47% 13.0 mph N20.9 kmh N 24.0 mph38.6 kmh 29.64 in1003.7 mb 0.00 in0.0 mm 0.00 in0.0 mm 0.00 in0.0 mm
03:02 AM 29.5°F-1.4°C 11.7°F-11.3°C 47% 11.0 mph N17.7 kmh N 23.0 mph37.0 kmh 29.64 in1003.7 mb 0.00 in0.0 mm 0.00 in0.0 mm 0.00 in0.0 mm
03:09 AM 29.7°F-1.3°C 12.2°F-11.0°C 48% 12.0 mph N19.3 kmh N 27.0 mph43.5 kmh 29.64 in1003.7 mb 0.00 in0.0 mm 0.00 in0.0 mm 0.00 in0.0 mm
03:16 AM 29.7°F-1.3°C 12.2°F-11.0°C 48% 9.0 mph N14.5 kmh N 27.0 mph43.5 kmh 29.63 in1003.4 mb 0.00 in0.0 mm 0.00 in0.0 mm 0.00 in0.0 mm
03:23 AM 29.7°F-1.3°C 11.8°F-11.2°C 47% 11.0 mph N17.7 kmh N 21.0 mph33.8 kmh 29.62 in1003.0 mb 0.00 in0.0 mm 0.00 in0.0 mm 0.00 in0.0 mm
03:30 AM 29.7°F-1.3°C 11.8°F-11.2°C 47% 11.0 mph N17.7 kmh N 19.0 mph30.6 kmh 29.61 in1002.7 mb 0.00 in0.0 mm 0.00 in0.0 mm 0.00 in0.0 mm
03:37 AM 29.7°F-1.3°C 11.8°F-11.2°C 47% 12.0 mph N19.3 kmh N 31.0 mph49.9 kmh 29.60 in1002.4 mb 0.00 in0.0 mm 0.00 in0.0 mm 0.00 in0.0 mm
03:44 AM 29.5°F-1.4°C 13.1°F-10.5°C 50% 13.0 mph NNE20.9 kmh NNE 28.0 mph45.1 kmh 29.59 in1002.0 mb 0.00 in0.0 mm 0.00 in0.0 mm 0.00 in0.0 mm
03:58 AM 29.1°F-1.6°C 12.7°F-10.7°C 50% 12.0 mph NE19.3 kmh NE 29.0 mph46.7 kmh 29.57 in1001.4 mb 0.00 in0.0 mm 0.00 in0.0 mm 0.00 in0.0 mm
04:05 AM 29.1°F-1.6°C 13.3°F-10.4°C 51% 13.0 mph NE20.9 kmh NE 29.0 mph46.7 kmh 29.56 in1001.0 mb 0.00 in0.0 mm 0.00 in0.0 mm 0.00 in0.0 mm
04:12 AM 29.1°F-1.6°C 13.3°F-10.4°C 51% 15.0 mph ENE24.1 kmh ENE 25.0 mph40.2 kmh 29.54 in1000.3 mb 0.00 in0.0 mm 0.00 in0.0 mm 0.00 in0.0 mm
04:19 AM 29.1°F-1.6°C 13.6°F-10.2°C 52% 13.0 mph ENE20.9 kmh ENE 29.0 mph46.7 kmh 29.54 in1000.3 mb 0.00 in0.0 mm 0.00 in0.0 mm 0.00 in0.0 mm
04:26 AM 28.9°F-1.7°C 13.5°F-10.3°C 52% 12.0 mph ENE19.3 kmh ENE 28.0 mph45.1 kmh 29.53 in1000.0 mb 0.00 in0.0 mm 0.00 in0.0 mm 0.00 in0.0 mm
04:33 AM 29.1°F-1.6°C 13.6°F-10.2°C 52% 12.0 mph ENE19.3 kmh ENE 31.0 mph49.9 kmh 29.53 in1000.0 mb 0.00 in0.0 mm 0.00 in0.0 mm 0.00 in0.0 mm
04:40 AM 29.3°F-1.5°C 13.8°F-10.1°C 52% 11.0 mph ENE17.7 kmh ENE 24.0 mph38.6 kmh 29.53 in1000.0 mb 0.00 in0.0 mm 0.00 in0.0 mm 0.00 in0.0 mm
04:47 AM 29.5°F-1.4°C 14.0°F-10.0°C 52% 11.0 mph ENE17.7 kmh ENE 24.0 mph38.6 kmh 29.53 in1000.0 mb 0.00 in0.0 mm 0.00 in0.0 mm 0.00 in0.0 mm
05:01 AM 29.7°F-1.3°C 13.6°F-10.2°C 51% 11.0 mph E17.7 kmh E 25.0 mph40.2 kmh 29.52 in999.7 mb 0.00 in0.0 mm 0.00 in0.0 mm 0.00 in0.0 mm
05:08 AM 29.7°F-1.3°C 13.8°F-10.1°C 51% 11.0 mph ENE17.7 kmh ENE 25.0 mph40.2 kmh 29.52 in999.7 mb 0.00 in0.0 mm 0.00 in0.0 mm 0.00 in0.0 mm
05:15 AM 29.7°F-1.3°C 14.2°F-9.9°C 52% 11.0 mph NE17.7 kmh NE 28.0 mph45.1 kmh 29.52 in999.7 mb 0.00 in0.0 mm 0.00 in0.0 mm 0.00 in0.0 mm
05:22 AM 29.7°F-1.3°C 13.6°F-10.2°C 51% 11.0 mph NE17.7 kmh NE 28.0 mph45.1 kmh 29.50 in999.0 mb 0.00 in0.0 mm 0.00 in0.0 mm 0.00 in0.0 mm
05:29 AM 29.8°F-1.2°C 13.5°F-10.3°C 50% 12.0 mph NE19.3 kmh NE 28.0 mph45.1 kmh 29.49 in998.6 mb 0.00 in0.0 mm 0.00 in0.0 mm 0.00 in0.0 mm
05:36 AM 29.8°F-1.2°C 12.9°F-10.6°C 49% 13.0 mph NE20.9 kmh NE 29.0 mph46.7 kmh 29.48 in998.3 mb 0.00 in0.0 mm 0.00 in0.0 mm 0.00 in0.0 mm
05:43 AM 29.8°F-1.2°C 13.5°F-10.3°C 50% 13.0 mph ENE20.9 kmh ENE 29.0 mph46.7 kmh 29.48 in998.3 mb 0.00 in0.0 mm 0.00 in0.0 mm 0.00 in0.0 mm
05:50 AM 29.8°F-1.2°C 12.9°F-10.6°C 49% 13.0 mph NE20.9 kmh NE 27.0 mph43.5 kmh 29.47 in998.0 mb 0.00 in0.0 mm 0.00 in0.0 mm 0.00 in0.0 mm
06:04 AM 29.8°F-1.2°C 12.9°F-10.6°C 49% 15.0 mph NE24.1 kmh NE 32.0 mph51.5 kmh 29.46 in997.6 mb 0.00 in0.0 mm 0.00 in0.0 mm 0.00 in0.0 mm
06:11 AM 29.8°F-1.2°C 12.9°F-10.6°C 49% 12.0 mph NE19.3 kmh NE 28.0 mph45.1 kmh 29.47 in998.0 mb 0.00 in0.0 mm 0.00 in0.0 mm 0.00 in0.0 mm
06:18 AM 29.8°F-1.2°C 12.9°F-10.6°C 49% 11.0 mph ENE17.7 kmh ENE 27.0 mph43.5 kmh 29.48 in998.3 mb 0.00 in0.0 mm 0.00 in0.0 mm 0.00 in0.0 mm
06:25 AM 29.7°F-1.3°C 12.9°F-10.6°C 49% 11.0 mph NE17.7 kmh NE 28.0 mph45.1 kmh 29.47 in998.0 mb 0.00 in0.0 mm 0.00 in0.0 mm 0.00 in0.0 mm
06:32 AM 29.7°F-1.3°C 13.3°F-10.4°C 50% 11.0 mph ENE17.7 kmh ENE 28.0 mph45.1 kmh 29.49 in998.6 mb 0.00 in0.0 mm 0.00 in0.0 mm 0.00 in0.0 mm
06:39 AM 29.3°F-1.5°C 16.0°F-8.9°C 57% 9.0 mph ENE14.5 kmh ENE 19.0 mph30.6 kmh 29.49 in998.6 mb 0.00 in0.0 mm 0.00 in0.0 mm 0.00 in0.0 mm
06:46 AM 28.8°F-1.8°C 16.5°F-8.6°C 60% 11.0 mph NE17.7 kmh NE 24.0 mph38.6 kmh 29.47 in998.0 mb 0.00 in0.0 mm 0.00 in0.0 mm 0.00 in0.0 mm
06:53 AM 28.2°F-2.1°C 17.2°F-8.2°C 63% 12.0 mph NE19.3 kmh NE 31.0 mph49.9 kmh 29.44 in997.0 mb 0.00 in0.0 mm 0.00 in0.0 mm 0.00 in0.0 mm
07:00 AM 28.0°F-2.2°C 17.8°F-7.9°C 65% 11.0 mph NNE17.7 kmh NNE 29.0 mph46.7 kmh 29.45 in997.3 mb 0.00 in0.0 mm 0.00 in0.0 mm 0.01 in0.3 mm
07:07 AM 27.9°F-2.3°C 18.0°F-7.8°C 66% 11.0 mph NNE17.7 kmh NNE 23.0 mph37.0 kmh 29.44 in997.0 mb 0.01 in0.3 mm 0.09 in2.3 mm 0.01 in0.3 mm
07:14 AM 27.7°F-2.4°C 17.8°F-7.9°C 66% 11.0 mph NE17.7 kmh NE 23.0 mph37.0 kmh 29.43 in996.6 mb 0.01 in0.3 mm 0.00 in0.0 mm 0.01 in0.3 mm
07:21 AM 27.7°F-2.4°C 17.8°F-7.9°C 66% 12.0 mph N19.3 kmh N 25.0 mph40.2 kmh 29.43 in996.6 mb 0.01 in0.3 mm 0.00 in0.0 mm 0.01 in0.3 mm
07:28 AM 27.7°F-2.4°C 18.1°F-7.7°C 67% 12.0 mph N19.3 kmh N 24.0 mph38.6 kmh 29.43 in996.6 mb 0.01 in0.3 mm 0.00 in0.0 mm 0.01 in0.3 mm
07:35 AM 27.7°F-2.4°C 18.1°F-7.7°C 67% 11.0 mph N17.7 kmh N 27.0 mph43.5 kmh 29.42 in996.3 mb 0.01 in0.3 mm 0.00 in0.0 mm 0.01 in0.3 mm
07:42 AM 27.7°F-2.4°C 18.1°F-7.7°C 67% 9.0 mph N14.5 kmh N 21.0 mph33.8 kmh 29.41 in995.9 mb 0.00 in0.0 mm 0.00 in0.0 mm 0.01 in0.3 mm
07:49 AM 27.9°F-2.3°C 18.3°F-7.6°C 67% 9.0 mph N14.5 kmh N 25.0 mph40.2 kmh 29.42 in996.3 mb 0.00 in0.0 mm 0.00 in0.0 mm 0.01 in0.3 mm
07:56 AM 27.9°F-2.3°C 18.3°F-7.6°C 67% 8.0 mph N12.9 kmh N 25.0 mph40.2 kmh 29.43 in996.6 mb 0.00 in0.0 mm 0.00 in0.0 mm 0.01 in0.3 mm
08:10 AM 28.0°F-2.2°C 18.9°F-7.3°C 68% 9.0 mph N14.5 kmh N 17.0 mph27.4 kmh 29.42 in996.3 mb 0.00 in0.0 mm 0.00 in0.0 mm 0.01 in0.3 mm
08:17 AM 28.2°F-2.1°C 19.4°F-7.0°C 69% 9.0 mph NE14.5 kmh NE 19.0 mph30.6 kmh 29.41 in995.9 mb 0.00 in0.0 mm 0.00 in0.0 mm 0.01 in0.3 mm
08:24 AM 28.2°F-2.1°C 19.4°F-7.0°C 69% 9.0 mph ENE14.5 kmh ENE 20.0 mph32.2 kmh 29.41 in995.9 mb 0.00 in0.0 mm 0.00 in0.0 mm 0.01 in0.3 mm
08:31 AM 28.4°F-2.0°C 19.9°F-6.7°C 70% 9.0 mph ENE14.5 kmh ENE 20.0 mph32.2 kmh 29.41 in995.9 mb 0.00 in0.0 mm 0.00 in0.0 mm 0.01 in0.3 mm
08:38 AM 28.6°F-1.9°C 19.9°F-6.7°C 70% 9.0 mph E14.5 kmh E 20.0 mph32.2 kmh 29.41 in995.9 mb 0.00 in0.0 mm 0.00 in0.0 mm 0.01 in0.3 mm
08:45 AM 28.4°F-2.0°C 19.9°F-6.7°C 70% 8.0 mph E12.9 kmh E 20.0 mph32.2 kmh 29.40 in995.6 mb 0.00 in0.0 mm 0.00 in0.0 mm 0.01 in0.3 mm
08:52 AM 28.6°F-1.9°C 20.1°F-6.6°C 70% 7.0 mph ENE11.3 kmh ENE 15.0 mph24.1 kmh 29.41 in995.9 mb 0.00 in0.0 mm 0.00 in0.0 mm 0.01 in0.3 mm
08:59 AM 28.9°F-1.7°C 20.3°F-6.5°C 70% 7.0 mph ENE11.3 kmh ENE 19.0 mph30.6 kmh 29.41 in995.9 mb 0.00 in0.0 mm 0.00 in0.0 mm 0.01 in0.3 mm
09:13 AM 28.8°F-1.8°C 19.8°F-6.8°C 69% 7.0 mph E11.3 kmh E 16.0 mph25.7 kmh 29.40 in995.6 mb 0.00 in0.0 mm 0.00 in0.0 mm 0.01 in0.3 mm
09:20 AM 28.8°F-1.8°C 19.8°F-6.8°C 69% 7.0 mph E11.3 kmh E 15.0 mph24.1 kmh 29.40 in995.6 mb 0.00 in0.0 mm 0.00 in0.0 mm 0.01 in0.3 mm
09:27 AM 28.8°F-1.8°C 19.8°F-6.8°C 69% 7.0 mph E11.3 kmh E 15.0 mph24.1 kmh 29.40 in995.6 mb 0.00 in0.0 mm 0.00 in0.0 mm 0.01 in0.3 mm
09:34 AM 28.6°F-1.9°C 19.8°F-6.8°C 69% 8.0 mph E12.9 kmh E 19.0 mph30.6 kmh 29.40 in995.6 mb 0.00 in0.0 mm 0.00 in0.0 mm 0.01 in0.3 mm
09:41 AM 28.6°F-1.9°C 19.8°F-6.8°C 69% 7.0 mph ENE11.3 kmh ENE 16.0 mph25.7 kmh 29.41 in995.9 mb 0.00 in0.0 mm 0.00 in0.0 mm 0.01 in0.3 mm
09:48 AM 28.6°F-1.9°C 19.8°F-6.8°C 69% 7.0 mph ENE11.3 kmh ENE 16.0 mph25.7 kmh 29.41 in995.9 mb 0.00 in0.0 mm 0.00 in0.0 mm 0.01 in0.3 mm
09:55 AM 28.6°F-1.9°C 19.8°F-6.8°C 69% 7.0 mph ENE11.3 kmh ENE 15.0 mph24.1 kmh 29.41 in995.9 mb 0.00 in0.0 mm 0.00 in0.0 mm 0.01 in0.3 mm
10:02 AM 28.8°F-1.8°C 19.8°F-6.8°C 69% 7.0 mph ENE11.3 kmh ENE 19.0 mph30.6 kmh 29.41 in995.9 mb 0.00 in0.0 mm 0.00 in0.0 mm 0.01 in0.3 mm
10:09 AM 28.9°F-1.7°C 20.3°F-6.5°C 70% 8.0 mph ENE12.9 kmh ENE 19.0 mph30.6 kmh 29.40 in995.6 mb 0.00 in0.0 mm 0.00 in0.0 mm 0.01 in0.3 mm
10:16 AM 29.3°F-1.5°C 20.7°F-6.3°C 70% 7.0 mph ENE11.3 kmh ENE 19.0 mph30.6 kmh 29.39 in995.3 mb 0.00 in0.0 mm 0.00 in0.0 mm 0.01 in0.3 mm
10:23 AM 29.5°F-1.4°C 20.8°F-6.2°C 70% 7.0 mph ENE11.3 kmh ENE 17.0 mph27.4 kmh 29.39 in995.3 mb 0.00 in0.0 mm 0.00 in0.0 mm 0.01 in0.3 mm
10:30 AM 29.5°F-1.4°C 20.8°F-6.2°C 70% 7.0 mph ENE11.3 kmh ENE 13.0 mph20.9 kmh 29.40 in995.6 mb 0.00 in0.0 mm 0.00 in0.0 mm 0.01 in0.3 mm
10:44 AM 29.7°F-1.3°C 20.8°F-6.2°C 69% 5.0 mph ENE8.0 kmh ENE 16.0 mph25.7 kmh 29.40 in995.6 mb 0.00 in0.0 mm 0.00 in0.0 mm 0.01 in0.3 mm
10:51 AM 29.8°F-1.2°C 20.8°F-6.2°C 69% 5.0 mph ENE8.0 kmh ENE 12.0 mph19.3 kmh 29.41 in995.9 mb 0.00 in0.0 mm 0.00 in0.0 mm 0.01 in0.3 mm
10:58 AM 29.8°F-1.2°C 21.2°F-6.0°C 70% 4.0 mph ENE6.4 kmh ENE 15.0 mph24.1 kmh 29.41 in995.9 mb 0.00 in0.0 mm 0.00 in0.0 mm 0.01 in0.3 mm
11:05 AM 30.0°F-1.1°C 21.4°F-5.9°C 70% 5.0 mph ENE8.0 kmh ENE 15.0 mph24.1 kmh 29.39 in995.3 mb 0.00 in0.0 mm 0.00 in0.0 mm 0.01 in0.3 mm
11:19 AM 30.2°F-1.0°C 21.6°F-5.8°C 70% 8.0 mph ENE12.9 kmh ENE 16.0 mph25.7 kmh 29.38 in994.9 mb 0.00 in0.0 mm 0.00 in0.0 mm 0.01 in0.3 mm
11:26 AM 30.4°F-0.9°C 21.7°F-5.7°C 70% 7.0 mph ENE11.3 kmh ENE 16.0 mph25.7 kmh 29.37 in994.6 mb 0.00 in0.0 mm 0.00 in0.0 mm 0.01 in0.3 mm
11:33 AM 30.4°F-0.9°C 21.7°F-5.7°C 70% 7.0 mph ENE11.3 kmh ENE 17.0 mph27.4 kmh 29.36 in994.2 mb 0.00 in0.0 mm 0.00 in0.0 mm 0.01 in0.3 mm
11:40 AM 30.4°F-0.9°C 21.7°F-5.7°C 70% 7.0 mph ENE11.3 kmh ENE 16.0 mph25.7 kmh 29.35 in993.9 mb 0.00 in0.0 mm 0.00 in0.0 mm 0.01 in0.3 mm
11:47 AM 30.6°F-0.8°C 21.9°F-5.6°C 70% 7.0 mph ENE11.3 kmh ENE 16.0 mph25.7 kmh 29.34 in993.6 mb 0.00 in0.0 mm 0.00 in0.0 mm 0.01 in0.3 mm
11:54 AM 30.6°F-0.8°C 21.9°F-5.6°C 70% 7.0 mph ENE11.3 kmh ENE 17.0 mph27.4 kmh 29.35 in993.9 mb 0.00 in0.0 mm 0.00 in0.0 mm 0.01 in0.3 mm
12:01 PM 30.9°F-0.6°C 22.3°F-5.4°C 70% 7.0 mph ENE11.3 kmh ENE 16.0 mph25.7 kmh 29.35 in993.9 mb 0.00 in0.0 mm 0.00 in0.0 mm 0.01 in0.3 mm
12:08 PM 31.1°F-0.5°C 22.1°F-5.5°C 69% 5.0 mph ENE8.0 kmh ENE 13.0 mph20.9 kmh 29.35 in993.9 mb 0.00 in0.0 mm 0.00 in0.0 mm 0.01 in0.3 mm
12:22 PM 31.3°F-0.4°C 22.3°F-5.4°C 69% 5.0 mph ENE8.0 kmh ENE 17.0 mph27.4 kmh 29.35 in993.9 mb 0.00 in0.0 mm 0.00 in0.0 mm 0.01 in0.3 mm
12:29 PM 31.3°F-0.4°C 22.3°F-5.4°C 69% 5.0 mph ENE8.0 kmh ENE 16.0 mph25.7 kmh 29.35 in993.9 mb 0.00 in0.0 mm 0.00 in0.0 mm 0.01 in0.3 mm
12:36 PM 31.3°F-0.4°C 22.3°F-5.4°C 69% 5.0 mph ENE8.0 kmh ENE 13.0 mph20.9 kmh 29.34 in993.6 mb 0.00 in0.0 mm 0.00 in0.0 mm 0.01 in0.3 mm
12:43 PM 31.3°F-0.4°C 22.3°F-5.4°C 69% 5.0 mph ENE8.0 kmh ENE 13.0 mph20.9 kmh 29.34 in993.6 mb 0.00 in0.0 mm 0.00 in0.0 mm 0.01 in0.3 mm
12:50 PM 31.5°F-0.3°C 22.8°F-5.1°C 70% 5.0 mph ENE8.0 kmh ENE 15.0 mph24.1 kmh 29.35 in993.9 mb 0.00 in0.0 mm 0.00 in0.0 mm 0.01 in0.3 mm
12:57 PM 31.5°F-0.3°C 22.8°F-5.1°C 70% 5.0 mph ENE8.0 kmh ENE 15.0 mph24.1 kmh 29.35 in993.9 mb 0.00 in0.0 mm 0.00 in0.0 mm 0.01 in0.3 mm
01:04 PM 31.6°F-0.2°C 23.0°F-5.0°C 70% 4.0 mph ENE6.4 kmh ENE 8.0 mph12.9 kmh 29.35 in993.9 mb 0.00 in0.0 mm 0.00 in0.0 mm 0.01 in0.3 mm
01:11 PM 31.6°F-0.2°C 23.0°F-5.0°C 70% 4.0 mph ENE6.4 kmh ENE 9.0 mph14.5 kmh 29.35 in993.9 mb 0.00 in0.0 mm 0.00 in0.0 mm 0.01 in0.3 mm
01:25 PM 31.6°F-0.2°C 23.0°F-5.0°C 70% 4.0 mph ENE6.4 kmh ENE 9.0 mph14.5 kmh 29.34 in993.6 mb 0.00 in0.0 mm 0.00 in0.0 mm 0.01 in0.3 mm
01:32 PM 31.6°F-0.2°C 23.0°F-5.0°C 70% 4.0 mph ENE6.4 kmh ENE 12.0 mph19.3 kmh 29.34 in993.6 mb 0.00 in0.0 mm 0.00 in0.0 mm 0.01 in0.3 mm
01:39 PM 31.6°F-0.2°C 23.0°F-5.0°C 70% 5.0 mph ENE8.0 kmh ENE 12.0 mph19.3 kmh 29.34 in993.6 mb 0.00 in0.0 mm 0.00 in0.0 mm 0.01 in0.3 mm
01:46 PM 31.6°F-0.2°C 23.0°F-5.0°C 70% 4.0 mph ENE6.4 kmh ENE 8.0 mph12.9 kmh 29.34 in993.6 mb 0.00 in0.0 mm 0.00 in0.0 mm 0.01 in0.3 mm
01:53 PM 31.6°F-0.2°C 23.0°F-5.0°C 70% 4.0 mph ENE6.4 kmh ENE 9.0 mph14.5 kmh 29.34 in993.6 mb 0.00 in0.0 mm 0.00 in0.0 mm 0.01 in0.3 mm
02:00 PM 31.8°F-0.1°C 23.2°F-4.9°C 70% 4.0 mph ENE6.4 kmh ENE 9.0 mph14.5 kmh 29.35 in993.9 mb 0.00 in0.0 mm 0.00 in0.0 mm 0.01 in0.3 mm
02:07 PM 31.8°F-0.1°C 23.2°F-4.9°C 70% 5.0 mph ENE8.0 kmh ENE 9.0 mph14.5 kmh 29.34 in993.6 mb 0.00 in0.0 mm 0.00 in0.0 mm 0.01 in0.3 mm
02:14 PM 31.8°F-0.1°C 23.2°F-4.9°C 70% 4.0 mph ENE6.4 kmh ENE 8.0 mph12.9 kmh 29.34 in993.6 mb 0.00 in0.0 mm 0.00 in0.0 mm 0.01 in0.3 mm
02:28 PM 31.8°F-0.1°C 23.5°F-4.7°C 71% 4.0 mph ENE6.4 kmh ENE 15.0 mph24.1 kmh 29.35 in993.9 mb 0.00 in0.0 mm 0.00 in0.0 mm 0.01 in0.3 mm
02:35 PM 31.6°F-0.2°C 23.4°F-4.8°C 71% 5.0 mph ENE8.0 kmh ENE 13.0 mph20.9 kmh 29.35 in993.9 mb 0.00 in0.0 mm 0.00 in0.0 mm 0.01 in0.3 mm
02:42 PM 31.6°F-0.2°C 23.4°F-4.8°C 71% 5.0 mph ENE8.0 kmh ENE 13.0 mph20.9 kmh 29.35 in993.9 mb 0.00 in0.0 mm 0.00 in0.0 mm 0.01 in0.3 mm
02:49 PM 31.8°F-0.1°C 23.5°F-4.7°C 71% 4.0 mph ENE6.4 kmh ENE 15.0 mph24.1 kmh 29.35 in993.9 mb 0.00 in0.0 mm 0.00 in0.0 mm 0.01 in0.3 mm
02:56 PM 31.8°F-0.1°C 23.5°F-4.7°C 71% 5.0 mph ENE8.0 kmh ENE 15.0 mph24.1 kmh 29.35 in993.9 mb 0.00 in0.0 mm 0.00 in0.0 mm 0.01 in0.3 mm
03:03 PM 31.8°F-0.1°C 23.5°F-4.7°C 71% 5.0 mph ENE8.0 kmh ENE 13.0 mph20.9 kmh 29.36 in994.2 mb 0.00 in0.0 mm 0.00 in0.0 mm 0.01 in0.3 mm
03:10 PM 31.8°F-0.1°C 23.5°F-4.7°C 71% 5.0 mph ENE8.0 kmh ENE 15.0 mph24.1 kmh 29.36 in994.2 mb 0.00 in0.0 mm 0.00 in0.0 mm 0.01 in0.3 mm
03:17 PM 31.8°F-0.1°C 23.5°F-4.7°C 71% 5.0 mph ENE8.0 kmh ENE 15.0 mph24.1 kmh 29.37 in994.6 mb 0.00 in0.0 mm 0.00 in0.0 mm 0.01 in0.3 mm
03:31 PM 31.6°F-0.2°C 23.7°F-4.6°C 72% 5.0 mph ENE8.0 kmh ENE 12.0 mph19.3 kmh 29.37 in994.6 mb 0.00 in0.0 mm 0.00 in0.0 mm 0.01 in0.3 mm
03:38 PM 31.6°F-0.2°C 23.7°F-4.6°C 72% 5.0 mph ENE8.0 kmh ENE 12.0 mph19.3 kmh 29.37 in994.6 mb 0.00 in0.0 mm 0.00 in0.0 mm 0.01 in0.3 mm
03:45 PM 31.8°F-0.1°C 23.7°F-4.6°C 72% 4.0 mph ENE6.4 kmh ENE 8.0 mph12.9 kmh 29.38 in994.9 mb 0.00 in0.0 mm 0.00 in0.0 mm 0.01 in0.3 mm
03:52 PM 31.8°F-0.1°C 23.7°F-4.6°C 72% 4.0 mph ENE6.4 kmh ENE 13.0 mph20.9 kmh 29.38 in994.9 mb 0.00 in0.0 mm 0.00 in0.0 mm 0.01 in0.3 mm
03:59 PM 31.8°F-0.1°C 23.7°F-4.6°C 72% 4.0 mph ENE6.4 kmh ENE 9.0 mph14.5 kmh 29.38 in994.9 mb 0.00 in0.0 mm 0.00 in0.0 mm 0.01 in0.3 mm
04:06 PM 31.8°F-0.1°C 23.7°F-4.6°C 72% 5.0 mph ENE8.0 kmh ENE 11.0 mph17.7 kmh 29.38 in994.9 mb 0.00 in0.0 mm 0.00 in0.0 mm 0.01 in0.3 mm
04:13 PM 31.8°F-0.1°C 24.1°F-4.4°C 73% 5.0 mph ENE8.0 kmh ENE 11.0 mph17.7 kmh 29.38 in994.9 mb 0.00 in0.0 mm 0.00 in0.0 mm 0.01 in0.3 mm
04:20 PM 31.8°F-0.1°C 24.3°F-4.3°C 73% 5.0 mph ENE8.0 kmh ENE 13.0 mph20.9 kmh 29.38 in994.9 mb 0.00 in0.0 mm 0.00 in0.0 mm 0.01 in0.3 mm
04:34 PM 31.8°F-0.1°C 24.3°F-4.3°C 73% 5.0 mph ENE8.0 kmh ENE 12.0 mph19.3 kmh 29.39 in995.3 mb 0.00 in0.0 mm 0.00 in0.0 mm 0.01 in0.3 mm
04:41 PM 31.8°F-0.1°C 24.1°F-4.4°C 73% 5.0 mph ENE8.0 kmh ENE 12.0 mph19.3 kmh 29.39 in995.3 mb 0.00 in0.0 mm 0.00 in0.0 mm 0.01 in0.3 mm
04:48 PM 31.8°F-0.1°C 24.1°F-4.4°C 73% 5.0 mph ENE8.0 kmh ENE 12.0 mph19.3 kmh 29.40 in995.6 mb 0.00 in0.0 mm 0.00 in0.0 mm 0.01 in0.3 mm
04:55 PM 31.8°F-0.1°C 24.3°F-4.3°C 73% 5.0 mph ENE8.0 kmh ENE 9.0 mph14.5 kmh 29.41 in995.9 mb 0.00 in0.0 mm 0.00 in0.0 mm 0.01 in0.3 mm
05:02 PM 31.8°F-0.1°C 24.3°F-4.3°C 73% 5.0 mph ENE8.0 kmh ENE 12.0 mph19.3 kmh 29.41 in995.9 mb 0.00 in0.0 mm 0.00 in0.0 mm 0.01 in0.3 mm
05:09 PM 31.8°F-0.1°C 24.3°F-4.3°C 73% 5.0 mph ENE8.0 kmh ENE 9.0 mph14.5 kmh 29.42 in996.3 mb 0.00 in0.0 mm 0.00 in0.0 mm 0.01 in0.3 mm
05:16 PM 32.0°F0.0°C 24.3°F-4.3°C 73% 4.0 mph ENE6.4 kmh ENE 9.0 mph14.5 kmh 29.43 in996.6 mb 0.00 in0.0 mm 0.00 in0.0 mm 0.01 in0.3 mm
05:23 PM 32.0°F0.0°C 24.3°F-4.3°C 73% 5.0 mph ENE8.0 kmh ENE 11.0 mph17.7 kmh 29.43 in996.6 mb 0.00 in0.0 mm 0.00 in0.0 mm 0.01 in0.3 mm
05:37 PM 32.0°F0.0°C 24.6°F-4.1°C 74% 4.0 mph ENE6.4 kmh ENE 8.0 mph12.9 kmh 29.43 in996.6 mb 0.00 in0.0 mm 0.00 in0.0 mm 0.01 in0.3 mm
05:44 PM 32.2°F0.1°C 24.8°F-4.0°C 74% 4.0 mph ENE6.4 kmh ENE 8.0 mph12.9 kmh 29.43 in996.6 mb 0.00 in0.0 mm 0.00 in0.0 mm 0.01 in0.3 mm
05:51 PM 32.2°F0.1°C 24.8°F-4.0°C 74% 4.0 mph ENE6.4 kmh ENE 8.0 mph12.9 kmh 29.44 in997.0 mb 0.00 in0.0 mm 0.00 in0.0 mm 0.01 in0.3 mm
05:58 PM 32.2°F0.1°C 24.8°F-4.0°C 74% 4.0 mph ENE6.4 kmh ENE 8.0 mph12.9 kmh 29.44 in997.0 mb 0.00 in0.0 mm 0.00 in0.0 mm 0.01 in0.3 mm
06:05 PM 32.2°F0.1°C 24.8°F-4.0°C 74% 3.0 mph ENE4.8 kmh ENE 7.0 mph11.3 kmh 29.44 in997.0 mb 0.00 in0.0 mm 0.00 in0.0 mm 0.01 in0.3 mm
06:12 PM 32.2°F0.1°C 24.8°F-4.0°C 74% 1.0 mph ENE1.6 kmh ENE 5.0 mph8.0 kmh 29.44 in997.0 mb 0.00 in0.0 mm 0.00 in0.0 mm 0.01 in0.3 mm
06:19 PM 32.2°F0.1°C 24.8°F-4.0°C 74% 3.0 mph ENE4.8 kmh ENE 5.0 mph8.0 kmh 29.44 in997.0 mb 0.00 in0.0 mm 0.00 in0.0 mm 0.01 in0.3 mm
06:26 PM 32.2°F0.1°C 24.8°F-4.0°C 74% 3.0 mph ENE4.8 kmh ENE 9.0 mph14.5 kmh 29.45 in997.3 mb 0.00 in0.0 mm 0.00 in0.0 mm 0.01 in0.3 mm
06:40 PM 32.4°F0.2°C 25.0°F-3.9°C 74% 3.0 mph ENE4.8 kmh ENE 7.0 mph11.3 kmh 29.45 in997.3 mb 0.00 in0.0 mm 0.00 in0.0 mm 0.01 in0.3 mm
06:47 PM 32.4°F0.2°C 25.0°F-3.9°C 74% 4.0 mph ENE6.4 kmh ENE 12.0 mph19.3 kmh 29.45 in997.3 mb 0.00 in0.0 mm 0.00 in0.0 mm 0.01 in0.3 mm
06:54 PM 32.4°F0.2°C 25.0°F-3.9°C 74% 3.0 mph ENE4.8 kmh ENE 12.0 mph19.3 kmh 29.45 in997.3 mb 0.00 in0.0 mm 0.00 in0.0 mm 0.01 in0.3 mm
07:01 PM 32.4°F0.2°C 25.0°F-3.9°C 74% 3.0 mph ENE4.8 kmh ENE 5.0 mph8.0 kmh 29.45 in997.3 mb 0.00 in0.0 mm 0.00 in0.0 mm 0.01 in0.3 mm
07:08 PM 32.4°F0.2°C 25.0°F-3.9°C 74% 3.0 mph ENE4.8 kmh ENE 5.0 mph8.0 kmh 29.45 in997.3 mb 0.00 in0.0 mm 0.00 in0.0 mm 0.01 in0.3 mm
07:15 PM 32.4°F0.2°C 25.0°F-3.9°C 74% 3.0 mph ENE4.8 kmh ENE 8.0 mph12.9 kmh 29.45 in997.3 mb 0.00 in0.0 mm 0.00 in0.0 mm 0.01 in0.3 mm
07:22 PM 32.4°F0.2°C 25.0°F-3.9°C 74% 3.0 mph ENE4.8 kmh ENE 8.0 mph12.9 kmh 29.45 in997.3 mb 0.00 in0.0 mm 0.00 in0.0 mm 0.01 in0.3 mm
07:29 PM 32.4°F0.2°C 25.0°F-3.9°C 74% 3.0 mph ENE4.8 kmh ENE 5.0 mph8.0 kmh 29.46 in997.6 mb 0.00 in0.0 mm 0.00 in0.0 mm 0.01 in0.3 mm
07:43 PM 32.5°F0.3°C 25.2°F-3.8°C 74% 1.0 mph E1.6 kmh E 7.0 mph11.3 kmh 29.46 in997.6 mb 0.00 in0.0 mm 0.00 in0.0 mm 0.01 in0.3 mm
07:50 PM 32.5°F0.3°C 25.2°F-3.8°C 74% 3.0 mph ENE4.8 kmh ENE 7.0 mph11.3 kmh 29.46 in997.6 mb 0.00 in0.0 mm 0.00 in0.0 mm 0.01 in0.3 mm
08:04 PM 32.5°F0.3°C 25.2°F-3.8°C 74% 3.0 mph ENE4.8 kmh ENE 5.0 mph8.0 kmh 29.46 in997.6 mb 0.00 in0.0 mm 0.00 in0.0 mm 0.01 in0.3 mm
08:11 PM 32.5°F0.3°C 25.2°F-3.8°C 74% 3.0 mph ENE4.8 kmh ENE 5.0 mph8.0 kmh 29.47 in998.0 mb 0.00 in0.0 mm 0.00 in0.0 mm 0.01 in0.3 mm
08:18 PM 32.5°F0.3°C 25.2°F-3.8°C 74% Calm Calm 3.0 mph4.8 kmh 29.47 in998.0 mb 0.00 in0.0 mm 0.00 in0.0 mm 0.01 in0.3 mm
08:25 PM 32.5°F0.3°C 25.2°F-3.8°C 74% 1.0 mph ENE1.6 kmh ENE 4.0 mph6.4 kmh 29.47 in998.0 mb 0.00 in0.0 mm 0.00 in0.0 mm 0.01 in0.3 mm
08:32 PM 32.5°F0.3°C 25.2°F-3.8°C 74% 1.0 mph ENE1.6 kmh ENE 5.0 mph8.0 kmh 29.47 in998.0 mb 0.00 in0.0 mm 0.00 in0.0 mm 0.01 in0.3 mm
08:46 PM 32.5°F0.3°C 25.2°F-3.8°C 74% 1.0 mph ENE1.6 kmh ENE 4.0 mph6.4 kmh 29.48 in998.3 mb 0.00 in0.0 mm 0.00 in0.0 mm 0.01 in0.3 mm
08:53 PM 32.5°F0.3°C 25.2°F-3.8°C 74% 3.0 mph ENE4.8 kmh ENE 7.0 mph11.3 kmh 29.48 in998.3 mb 0.00 in0.0 mm 0.00 in0.0 mm 0.01 in0.3 mm
09:00 PM 32.5°F0.3°C 25.2°F-3.8°C 74% 4.0 mph ENE6.4 kmh ENE 7.0 mph11.3 kmh 29.48 in998.3 mb 0.00 in0.0 mm 0.00 in0.0 mm 0.01 in0.3 mm
09:07 PM 32.5°F0.3°C 25.2°F-3.8°C 74% 3.0 mph ENE4.8 kmh ENE 5.0 mph8.0 kmh 29.48 in998.3 mb 0.00 in0.0 mm 0.00 in0.0 mm 0.01 in0.3 mm
09:14 PM 32.5°F0.3°C 25.2°F-3.8°C 74% 3.0 mph ENE4.8 kmh ENE 5.0 mph8.0 kmh 29.48 in998.3 mb 0.00 in0.0 mm 0.00 in0.0 mm 0.01 in0.3 mm
09:21 PM 32.5°F0.3°C 25.2°F-3.8°C 74% 3.0 mph ENE4.8 kmh ENE 7.0 mph11.3 kmh 29.48 in998.3 mb 0.00 in0.0 mm 0.00 in0.0 mm 0.01 in0.3 mm
09:28 PM 32.5°F0.3°C 25.2°F-3.8°C 74% Calm Calm 4.0 mph6.4 kmh 29.48 in998.3 mb 0.00 in0.0 mm 0.00 in0.0 mm 0.01 in0.3 mm
09:35 PM 32.5°F0.3°C 25.2°F-3.8°C 74% Calm Calm 4.0 mph6.4 kmh 29.48 in998.3 mb 0.02 in0.5 mm 0.17 in4.3 mm 0.02 in0.5 mm
09:49 PM 32.5°F0.3°C 25.2°F-3.8°C 74% Calm Calm 3.0 mph4.8 kmh 29.47 in998.0 mb 0.02 in0.5 mm 0.00 in0.0 mm 0.02 in0.5 mm
09:56 PM 32.5°F0.3°C 25.2°F-3.8°C 74% Calm Calm 1.0 mph1.6 kmh 29.47 in998.0 mb 0.02 in0.5 mm 0.00 in0.0 mm 0.02 in0.5 mm
10:03 PM 32.5°F0.3°C 25.2°F-3.8°C 74% Calm Calm 1.0 mph1.6 kmh 29.48 in998.3 mb 0.02 in0.5 mm 0.00 in0.0 mm 0.02 in0.5 mm
10:10 PM 32.5°F0.3°C 25.2°F-3.8°C 74% Calm Calm 3.0 mph4.8 kmh 29.48 in998.3 mb 0.02 in0.5 mm 0.00 in0.0 mm 0.02 in0.5 mm
10:17 PM 32.5°F0.3°C 25.2°F-3.8°C 74% 1.0 mph NE1.6 kmh NE 4.0 mph6.4 kmh 29.48 in998.3 mb 0.02 in0.5 mm 0.00 in0.0 mm 0.02 in0.5 mm
10:24 PM 32.5°F0.3°C 25.2°F-3.8°C 74% 1.0 mph NE1.6 kmh NE 5.0 mph8.0 kmh 29.48 in998.3 mb 0.02 in0.5 mm 0.00 in0.0 mm 0.02 in0.5 mm
10:31 PM 32.7°F0.4°C 25.3°F-3.7°C 74% 1.0 mph NE1.6 kmh NE 4.0 mph6.4 kmh 29.48 in998.3 mb 0.00 in0.0 mm 0.00 in0.0 mm 0.02 in0.5 mm
10:38 PM 32.5°F0.3°C 25.2°F-3.8°C 74% 1.0 mph NE1.6 kmh NE 4.0 mph6.4 kmh 29.48 in998.3 mb 0.00 in0.0 mm 0.00 in0.0 mm 0.02 in0.5 mm
10:52 PM 32.5°F0.3°C 25.2°F-3.8°C 74% Calm Calm 3.0 mph4.8 kmh 29.49 in998.6 mb 0.00 in0.0 mm 0.00 in0.0 mm 0.02 in0.5 mm
10:59 PM 32.5°F0.3°C 25.2°F-3.8°C 74% 1.0 mph NE1.6 kmh NE 4.0 mph6.4 kmh 29.49 in998.6 mb 0.00 in0.0 mm 0.00 in0.0 mm 0.02 in0.5 mm
11:06 PM 32.5°F0.3°C 25.2°F-3.8°C 74% 1.0 mph NE1.6 kmh NE 3.0 mph4.8 kmh 29.49 in998.6 mb 0.00 in0.0 mm 0.00 in0.0 mm 0.02 in0.5 mm
11:13 PM 32.5°F0.3°C 25.2°F-3.8°C 74% 1.0 mph NE1.6 kmh NE 5.0 mph8.0 kmh 29.49 in998.6 mb 0.00 in0.0 mm 0.00 in0.0 mm 0.02 in0.5 mm
11:20 PM 32.5°F0.3°C 25.2°F-3.8°C 74% 3.0 mph NE4.8 kmh NE 5.0 mph8.0 kmh 29.49 in998.6 mb 0.00 in0.0 mm 0.00 in0.0 mm 0.02 in0.5 mm
11:27 PM 32.5°F0.3°C 25.2°F-3.8°C 74% 3.0 mph ENE4.8 kmh ENE 7.0 mph11.3 kmh 29.50 in999.0 mb 0.00 in0.0 mm 0.00 in0.0 mm 0.02 in0.5 mm
11:34 PM 32.5°F0.3°C 25.2°F-3.8°C 74% 3.0 mph ENE4.8 kmh ENE 5.0 mph8.0 kmh 29.50 in999.0 mb 0.00 in0.0 mm 0.00 in0.0 mm 0.02 in0.5 mm
11:41 PM 32.5°F0.3°C 25.2°F-3.8°C 74% 3.0 mph ENE4.8 kmh ENE 8.0 mph12.9 kmh 29.50 in999.0 mb 0.00 in0.0 mm 0.00 in0.0 mm 0.02 in0.5 mm
11:55 PM 32.5°F0.3°C 25.2°F-3.8°C 74% Calm Calm 3.0 mph4.8 kmh 29.50 in999.0 mb 0.00 in0.0 mm 0.00 in0.0 mm 0.02 in0.5 mm